createdAt,value
2019-04-26T00:01:18.327Z,16.50
2019-04-26T00:03:48.976Z,16.50
2019-04-26T00:06:18.741Z,16.50
2019-04-26T00:08:57.258Z,16.50
2019-04-26T00:11:45.759Z,16.50
2019-04-26T00:14:54.072Z,16.50
2019-04-26T00:17:34.318Z,16.50
2019-04-26T00:20:04.473Z,16.40
2019-04-26T00:22:34.573Z,16.30
2019-04-26T00:25:04.351Z,16.20
2019-04-26T00:27:33.791Z,16.10
2019-04-26T00:30:04.671Z,16.10
2019-04-26T00:32:34.115Z,16.00
2019-04-26T00:35:07.524Z,16.00
2019-04-26T00:37:38.073Z,16.00
2019-04-26T00:40:09.187Z,16.10
2019-04-26T00:42:38.892Z,16.20
2019-04-26T00:45:08.493Z,16.30
2019-04-26T00:47:39.183Z,16.30
2019-04-26T00:50:09.428Z,16.40
2019-04-26T00:52:40.647Z,16.40
2019-04-26T00:55:12.025Z,16.50
2019-04-26T00:57:43.323Z,16.40
2019-04-26T01:00:15.192Z,16.40
2019-04-26T01:02:50.376Z,16.40
2019-04-26T01:05:21.693Z,16.40
2019-04-26T01:07:54.436Z,16.30
2019-04-26T01:10:24.104Z,16.30
2019-04-26T01:12:53.677Z,16.30
2019-04-26T01:15:24.747Z,16.30
2019-04-26T01:17:55.352Z,16.30
2019-04-26T01:20:28.011Z,16.30
2019-04-26T01:23:01.097Z,16.20
2019-04-26T01:25:43.192Z,16.20
2019-04-26T01:28:28.501Z,16.20
2019-04-26T01:31:01.277Z,16.10
2019-04-26T01:33:32.837Z,16.10
2019-04-26T01:36:12.980Z,16.10
2019-04-26T01:38:34.516Z,16.10
2019-04-26T01:41:08.320Z,16.00
2019-04-26T01:44:02.291Z,16.00
2019-04-26T01:46:39.077Z,15.90
2019-04-26T01:49:10.837Z,15.80
2019-04-26T01:51:48.505Z,15.80
2019-04-26T01:54:22.466Z,15.70
2019-04-26T01:56:55.318Z,15.70
2019-04-26T01:59:25.781Z,15.60
2019-04-26T02:02:04.022Z,15.50
2019-04-26T02:04:36.701Z,15.30
2019-04-26T02:07:24.807Z,15.10
2019-04-26T02:09:56.226Z,15.00
2019-04-26T02:12:26.726Z,14.90
2019-04-26T02:14:57.895Z,15.00
2019-04-26T02:17:29.761Z,14.90
2019-04-26T02:19:59.480Z,14.90
2019-04-26T02:22:40.075Z,14.90
2019-04-26T02:25:10.047Z,14.80
2019-04-26T02:27:39.583Z,14.70
2019-04-26T02:30:11.281Z,14.60
2019-04-26T02:32:41.265Z,14.50
2019-04-26T02:35:11.604Z,14.40
2019-04-26T02:37:43.303Z,14.40
2019-04-26T02:40:16.487Z,14.30
2019-04-26T02:42:48.149Z,14.10
2019-04-26T02:46:01.495Z,14.00
2019-04-26T02:48:51.901Z,13.90
2019-04-26T02:51:30.853Z,13.70
2019-04-26T02:54:08.446Z,13.60
2019-04-26T02:56:41.339Z,13.50
2019-04-26T02:59:44.549Z,13.50
2019-04-26T03:02:25.559Z,13.60
2019-04-26T03:05:00.678Z,13.50
2019-04-26T03:07:59.924Z,13.60
2019-04-26T03:10:52.819Z,13.50
2019-04-26T03:13:44.623Z,13.40
2019-04-26T03:16:37.264Z,13.30
2019-04-26T03:19:26.476Z,13.20
2019-04-26T03:22:05.910Z,13.10
2019-04-26T03:24:48.596Z,13.10
2019-04-26T03:27:48.540Z,13.10
2019-04-26T03:30:26.225Z,13.00
2019-04-26T03:33:25.357Z,12.90
2019-04-26T03:36:37.361Z,12.80
2019-04-26T03:39:24.492Z,12.70
2019-04-26T03:42:35.135Z,12.60
2019-04-26T03:45:22.124Z,12.40
2019-04-26T03:48:18.512Z,12.40
2019-04-26T03:50:56.379Z,12.20
2019-04-26T03:53:44.572Z,12.20
2019-04-26T03:56:45.544Z,12.10
2019-04-26T04:00:24.264Z,12.00
2019-04-26T04:03:13.575Z,11.90
2019-04-26T04:05:48.722Z,11.70
2019-04-26T04:08:24.377Z,11.60
2019-04-26T04:10:58.500Z,11.40
2019-04-26T04:13:54.196Z,11.30
2019-04-26T04:16:34.758Z,11.30
2019-04-26T04:19:13.723Z,11.20
2019-04-26T04:21:56.738Z,11.10
2019-04-26T04:24:43.383Z,11.10
2019-04-26T04:27:47.851Z,11.10
2019-04-26T04:30:49.418Z,11.00
2019-04-26T04:33:43.627Z,11.00
2019-04-26T04:36:23.984Z,11.00
2019-04-26T04:39:12.823Z,10.70
2019-04-26T04:42:13.259Z,10.80
2019-04-26T04:45:07.406Z,10.80
2019-04-26T04:47:54.038Z,10.90
2019-04-26T04:50:40.942Z,10.90
2019-04-26T04:53:31.417Z,10.80
2019-04-26T04:56:36.972Z,10.80
2019-04-26T04:59:10.249Z,10.70
2019-04-26T05:02:36.314Z,10.70
2019-04-26T05:06:07.471Z,10.70
2019-04-26T05:09:00.574Z,10.70
2019-04-26T05:11:52.013Z,10.70
2019-04-26T05:14:59.524Z,10.70
2019-04-26T05:18:06.276Z,10.70
2019-04-26T05:20:49.373Z,10.60
2019-04-26T05:23:55.241Z,10.60
2019-04-26T05:27:07.293Z,10.60
2019-04-26T05:30:02.189Z,10.50
2019-04-26T05:33:07.599Z,10.40
2019-04-26T05:36:10.412Z,10.60
2019-04-26T05:38:49.617Z,10.40
2019-04-26T05:41:48.111Z,10.30
2019-04-26T05:45:11.127Z,10.20
2019-04-26T05:48:11.870Z,10.20
2019-04-26T05:51:34.313Z,10.30
2019-04-26T05:54:44.368Z,10.40
2019-04-26T05:57:45.480Z,10.50
2019-04-26T06:00:50.898Z,10.70
2019-04-26T06:04:13.212Z,10.70
2019-04-26T06:06:53.375Z,10.90
2019-04-26T06:09:50.359Z,11.00
2019-04-26T06:12:36.987Z,11.10
2019-04-26T06:15:38.701Z,11.20
2019-04-26T06:18:57.672Z,11.60
2019-04-26T06:21:57.925Z,12.00
2019-04-26T06:25:10.341Z,11.80
2019-04-26T06:28:23.862Z,11.60
2019-04-26T06:31:06.004Z,11.50
2019-04-26T06:33:44.452Z,11.40
2019-04-26T06:36:21.221Z,11.10
2019-04-26T06:39:39.178Z,11.20
2019-04-26T06:42:32.941Z,11.60
2019-04-26T06:45:28.596Z,12.50
2019-04-26T06:48:06.418Z,13.70
2019-04-26T06:50:46.913Z,14.90
2019-04-26T06:53:39.040Z,15.20
2019-04-26T06:56:51.528Z,14.40
2019-04-26T06:59:36.660Z,14.60
2019-04-26T07:03:01.035Z,14.70
2019-04-26T07:05:34.122Z,15.50
2019-04-26T07:08:57.366Z,16.30
2019-04-26T07:12:28.623Z,17.10
2019-04-26T07:15:37.817Z,18.10
2019-04-26T07:18:24.569Z,18.00
2019-04-26T07:21:28.912Z,18.60
2019-04-26T07:25:17.802Z,18.70
2019-04-26T07:28:06.355Z,19.20
2019-04-26T07:30:47.728Z,19.30
2019-04-26T07:33:58.516Z,20.40
2019-04-26T07:37:16.272Z,20.70
2019-04-26T07:40:42.879Z,20.20
2019-04-26T07:43:22.745Z,20.20
2019-04-26T07:46:28.279Z,20.20
2019-04-26T07:49:52.925Z,20.40
2019-04-26T07:53:09.309Z,20.10
2019-04-26T07:55:56.499Z,20.40
2019-04-26T07:59:07.222Z,20.30
2019-04-26T08:02:24.040Z,20.20
2019-04-26T08:04:58.991Z,18.50
2019-04-26T08:07:31.954Z,18.30
2019-04-26T08:10:12.358Z,18.70
2019-04-26T08:12:48.078Z,19.20
2019-04-26T08:15:40.945Z,18.80
2019-04-26T08:18:19.392Z,18.40
2019-04-26T08:21:10.017Z,18.20
2019-04-26T08:23:43.759Z,18.00
2019-04-26T08:26:16.414Z,16.90
2019-04-26T08:28:49.421Z,17.40
2019-04-26T08:31:24.741Z,17.40
2019-04-26T08:34:00.712Z,16.90
2019-04-26T08:36:34.843Z,17.90
2019-04-26T08:39:13.017Z,18.60
2019-04-26T08:41:44.967Z,19.00
2019-04-26T08:44:23.850Z,21.20
2019-04-26T08:47:16.406Z,22.70
2019-04-26T08:50:12.224Z,23.30
2019-04-26T08:52:43.156Z,21.70
2019-04-26T08:55:20.830Z,21.60
2019-04-26T08:57:54.525Z,21.60
2019-04-26T09:00:36.364Z,21.90
2019-04-26T09:03:14.434Z,21.60
2019-04-26T09:06:08.281Z,21.00
2019-04-26T09:08:43.621Z,20.10
2019-04-26T09:11:25.381Z,18.80
2019-04-26T09:13:49.983Z,19.10
2019-04-26T09:16:22.005Z,18.10
2019-04-26T09:18:55.056Z,17.60
2019-04-26T09:21:34.398Z,17.60
2019-04-26T09:24:26.675Z,17.50
2019-04-26T09:27:17.203Z,17.10
2019-04-26T09:30:05.040Z,16.40
2019-04-26T09:32:39.065Z,16.00
2019-04-26T09:35:11.316Z,15.80
2019-04-26T09:37:40.389Z,15.70
2019-04-26T09:40:10.904Z,15.70
2019-04-26T09:42:49.948Z,15.50
2019-04-26T09:45:38.060Z,15.50
2019-04-26T09:48:20.114Z,15.20
2019-04-26T09:50:51.772Z,15.10
2019-04-26T09:53:22.572Z,15.10
2019-04-26T09:55:51.918Z,15.10
2019-04-26T09:58:21.306Z,15.10
2019-04-26T10:00:51.487Z,15.00
2019-04-26T10:03:21.073Z,14.40
2019-04-26T10:05:52.106Z,14.00
2019-04-26T10:08:21.628Z,14.00
2019-04-26T10:10:51.729Z,13.90
2019-04-26T10:13:42.552Z,13.70
2019-04-26T10:16:26.846Z,13.90
2019-04-26T10:19:01.658Z,14.00
2019-04-26T10:21:31.065Z,14.00
2019-04-26T10:24:00.445Z,14.10
2019-04-26T10:26:30.038Z,14.20
2019-04-26T10:28:59.341Z,14.30
2019-04-26T10:31:28.744Z,14.40
2019-04-26T10:33:58.584Z,14.40
2019-04-26T10:36:30.258Z,14.20
2019-04-26T10:38:59.774Z,14.20
2019-04-26T10:41:30.525Z,14.10
2019-04-26T10:43:59.896Z,13.90
2019-04-26T10:46:29.516Z,13.60
2019-04-26T10:49:08.529Z,13.50
2019-04-26T10:51:41.869Z,13.60
2019-04-26T10:54:15.845Z,13.60
2019-04-26T10:57:10.109Z,13.80
2019-04-26T11:00:09.374Z,13.80
2019-04-26T11:02:38.710Z,13.80
2019-04-26T11:05:11.721Z,13.70
2019-04-26T11:07:49.020Z,13.70
2019-04-26T11:10:18.493Z,13.70
2019-04-26T11:12:48.673Z,13.70
2019-04-26T11:15:18.453Z,13.80
2019-04-26T11:17:49.957Z,13.70
2019-04-26T11:20:18.997Z,13.60
2019-04-26T11:22:50.346Z,13.10
2019-04-26T11:25:20.872Z,12.70
2019-04-26T11:27:51.156Z,12.50
2019-04-26T11:30:21.368Z,12.00
2019-04-26T11:32:51.414Z,11.90
2019-04-26T11:35:22.745Z,11.80
2019-04-26T11:37:55.230Z,11.70
2019-04-26T11:40:24.669Z,11.60
2019-04-26T11:42:54.338Z,11.40
2019-04-26T11:45:23.776Z,11.30
2019-04-26T11:47:56.233Z,11.10
2019-04-26T11:50:24.324Z,11.10
2019-04-26T11:52:54.494Z,11.10
2019-04-26T11:55:25.344Z,11.00
2019-04-26T11:57:55.369Z,11.10
2019-04-26T12:00:32.585Z,10.90
2019-04-26T12:03:03.372Z,10.70
2019-04-26T12:06:00.568Z,10.70
2019-04-26T12:09:01.418Z,10.60
2019-04-26T12:11:48.772Z,10.60
2019-04-26T12:14:19.549Z,10.30
2019-04-26T12:16:49.276Z,9.90
2019-04-26T12:19:18.346Z,9.60
2019-04-26T12:21:47.320Z,9.60
2019-04-26T12:24:18.658Z,9.40
2019-04-26T12:26:52.033Z,9.20
2019-04-26T12:29:19.612Z,9.20
2019-04-26T12:31:49.020Z,9.40
2019-04-26T12:34:19.152Z,9.40
2019-04-26T12:36:50.683Z,9.40
2019-04-26T12:39:27.119Z,9.40
2019-04-26T12:41:57.718Z,9.30
2019-04-26T12:44:36.453Z,9.30
2019-04-26T12:47:10.044Z,9.10
2019-04-26T12:49:40.074Z,9.00
2019-04-26T12:52:09.888Z,8.90
2019-04-26T12:54:42.968Z,8.90
2019-04-26T12:57:16.162Z,8.80
2019-04-26T12:59:44.734Z,8.90
2019-04-26T13:02:16.535Z,8.90
2019-04-26T13:04:46.535Z,8.80
2019-04-26T13:07:24.265Z,8.80
2019-04-26T13:10:12.224Z,8.70
2019-04-26T13:12:50.036Z,8.70
2019-04-26T13:16:07.247Z,8.60
2019-04-26T13:18:41.144Z,8.70
2019-04-26T13:21:08.712Z,8.70
2019-04-26T13:23:39.024Z,8.70
2019-04-26T13:26:08.397Z,8.70
2019-04-26T13:28:37.774Z,8.80
2019-04-26T13:31:07.404Z,8.80
2019-04-26T13:33:37.218Z,8.90
2019-04-26T13:36:10.010Z,9.20
2019-04-26T13:38:43.072Z,9.30
2019-04-26T13:41:10.440Z,9.30
2019-04-26T13:43:41.299Z,9.40
2019-04-26T13:46:30.586Z,9.30
2019-04-26T13:49:27.937Z,9.20
2019-04-26T13:51:57.456Z,9.10
2019-04-26T13:54:26.847Z,9.00
2019-04-26T13:56:58.335Z,9.10
2019-04-26T13:59:31.414Z,9.00
2019-04-26T14:02:13.041Z,8.90
2019-04-26T14:04:43.250Z,8.90
2019-04-26T14:07:12.978Z,8.60
2019-04-26T14:09:42.367Z,8.60
2019-04-26T14:12:18.659Z,8.70
2019-04-26T14:14:47.532Z,8.80
2019-04-26T14:17:19.245Z,8.70
2019-04-26T14:19:51.082Z,8.60
2019-04-26T14:22:24.076Z,8.60
2019-04-26T14:25:01.517Z,8.50
2019-04-26T14:27:38.678Z,8.40
2019-04-26T14:30:12.695Z,8.40
2019-04-26T14:32:44.386Z,8.40
2019-04-26T14:35:15.653Z,8.30
2019-04-26T14:37:49.779Z,8.40
2019-04-26T14:40:18.289Z,8.40
2019-04-26T14:42:48.874Z,8.30
2019-04-26T14:45:23.567Z,8.40
2019-04-26T14:47:51.411Z,8.40
2019-04-26T14:50:21.729Z,8.40
2019-04-26T14:52:51.597Z,8.30
2019-04-26T14:55:22.583Z,8.30
2019-04-26T14:57:55.923Z,8.40
2019-04-26T15:00:31.197Z,8.40
2019-04-26T15:03:07.603Z,8.30
2019-04-26T15:06:10.214Z,8.30
2019-04-26T15:08:40.560Z,8.40
2019-04-26T15:11:12.836Z,8.50
2019-04-26T15:13:47.212Z,8.50
2019-04-26T15:16:18.101Z,8.30
2019-04-26T15:18:48.535Z,8.40
2019-04-26T15:21:19.148Z,8.40
2019-04-26T15:23:49.042Z,8.40
2019-04-26T15:26:22.136Z,8.40
2019-04-26T15:28:51.500Z,8.30
2019-04-26T15:31:21.661Z,8.30
2019-04-26T15:33:52.854Z,8.20
2019-04-26T15:36:23.292Z,8.10
2019-04-26T15:38:53.901Z,8.00
2019-04-26T15:41:51.286Z,8.00
2019-04-26T15:44:47.611Z,8.10
2019-04-26T15:51:00.135Z,7.90
2019-04-26T15:53:33.182Z,7.80
2019-04-26T15:56:04.268Z,7.80
2019-04-26T15:58:33.876Z,7.80
2019-04-26T16:01:06.707Z,7.80
2019-04-26T16:03:36.749Z,7.90
2019-04-26T16:06:08.161Z,8.00
2019-04-26T16:08:42.706Z,8.10
2019-04-26T16:11:11.397Z,8.10
2019-04-26T16:13:44.660Z,8.10
2019-04-26T16:16:12.639Z,8.00
2019-04-26T16:18:43.121Z,8.00
2019-04-26T16:21:17.890Z,8.00
2019-04-26T16:23:51.171Z,8.10
2019-04-26T16:26:17.589Z,8.10
2019-04-26T16:29:08.727Z,8.10
2019-04-26T16:31:59.917Z,8.10
2019-04-26T16:34:29.582Z,8.10
2019-04-26T16:36:59.240Z,8.10
2019-04-26T16:39:38.376Z,8.10
2019-04-26T16:42:04.996Z,8.00
2019-04-26T16:44:33.881Z,8.00
2019-04-26T16:47:05.685Z,8.00
2019-04-26T16:52:07.286Z,8.10
2019-04-26T16:54:37.377Z,8.20
2019-04-26T16:57:15.205Z,8.30
2019-04-26T16:59:50.991Z,8.40
2019-04-26T17:00:32.161Z,8.00
2019-04-26T17:02:25.616Z,8.40
2019-04-26T17:04:48.653Z,8.60
2019-04-26T17:07:22.415Z,8.70
2019-04-26T17:09:57.653Z,8.70
2019-04-26T17:12:22.627Z,8.70
2019-04-26T17:14:52.628Z,8.50
2019-04-26T17:17:22.511Z,8.60
2019-04-26T17:19:54.090Z,8.70
2019-04-26T17:22:44.681Z,8.70
2019-04-26T17:25:32.095Z,8.70
2019-04-26T17:28:03.444Z,8.80
2019-04-26T17:30:41.078Z,8.80
2019-04-26T17:33:06.520Z,8.60
2019-04-26T17:35:36.600Z,8.60
2019-04-26T17:38:07.129Z,8.60
2019-04-26T17:40:38.068Z,8.50
2019-04-26T17:43:13.324Z,8.60
2019-04-26T17:45:44.190Z,8.50
2019-04-26T17:48:14.835Z,8.50
2019-04-26T17:50:45.518Z,8.50
2019-04-26T17:53:26.238Z,8.50
2019-04-26T17:55:50.867Z,8.60
2019-04-26T17:58:49.797Z,8.60
2019-04-26T18:01:09.578Z,8.50
2019-04-26T18:03:39.287Z,8.50
2019-04-26T18:06:09.558Z,8.50
2019-04-26T18:08:46.057Z,8.50
2019-04-26T18:11:18.869Z,8.50
2019-04-26T18:13:42.184Z,8.50
2019-04-26T18:16:11.612Z,8.60
2019-04-26T18:18:58.585Z,8.60
2019-04-26T18:22:05.301Z,8.50
2019-04-26T18:24:35.783Z,8.50
2019-04-26T18:27:05.164Z,8.40
2019-04-26T18:29:36.479Z,8.40
2019-04-26T18:32:05.975Z,8.30
2019-04-26T18:34:40.257Z,8.20
2019-04-26T18:37:09.776Z,8.10
2019-04-26T18:39:40.721Z,8.10
2019-04-26T18:42:10.592Z,8.10
2019-04-26T18:44:47.533Z,8.10
2019-04-26T18:47:25.628Z,8.00
2019-04-26T18:49:58.325Z,8.10
2019-04-26T18:52:26.341Z,8.10
2019-04-26T18:55:05.465Z,8.20
2019-04-26T18:57:34.030Z,8.30
2019-04-26T19:00:04.910Z,8.30
2019-04-26T19:02:35.549Z,8.30
2019-04-26T19:05:06.036Z,8.30
2019-04-26T19:07:36.051Z,8.30
2019-04-26T19:10:07.077Z,8.30
2019-04-26T19:12:37.397Z,8.30
2019-04-26T19:15:25.088Z,8.20
2019-04-26T19:18:33.876Z,8.10
2019-04-26T19:21:12.872Z,8.30
2019-04-26T19:23:42.504Z,8.20
2019-04-26T19:26:13.757Z,8.20
2019-04-26T19:28:44.636Z,8.20
2019-04-26T19:31:14.524Z,8.20
2019-04-26T19:33:47.615Z,8.20
2019-04-26T19:36:22.653Z,8.30
2019-04-26T19:38:53.231Z,8.30
2019-04-26T19:41:25.186Z,8.30
2019-04-26T19:43:56.038Z,8.30
2019-04-26T19:46:54.062Z,8.30
2019-04-26T19:49:45.597Z,8.30
2019-04-26T19:52:22.130Z,8.40
2019-04-26T19:54:55.908Z,8.40
2019-04-26T19:57:57.519Z,8.40
2019-04-26T20:00:28.086Z,8.30
2019-04-26T20:02:58.776Z,8.30
2019-04-26T20:05:28.607Z,8.20
2019-04-26T20:08:02.447Z,8.30
2019-04-26T20:10:34.606Z,8.30
2019-04-26T20:13:02.550Z,8.40
2019-04-26T20:15:32.278Z,8.40
2019-04-26T20:18:03.843Z,8.30
2019-04-26T20:20:36.209Z,8.30
2019-04-26T20:23:07.819Z,8.30
2019-04-26T20:25:36.357Z,8.30
2019-04-26T20:28:09.595Z,8.30
2019-04-26T20:31:13.062Z,8.30
2019-04-26T20:33:43.136Z,8.40
2019-04-26T20:36:13.428Z,8.50
2019-04-26T20:38:47.446Z,8.40
2019-04-26T20:41:17.839Z,8.50
2019-04-26T20:44:02.439Z,8.50
2019-04-26T20:46:24.254Z,8.50
2019-04-26T20:48:52.057Z,8.50
2019-04-26T20:51:22.497Z,8.50
2019-04-26T20:53:52.675Z,8.40
2019-04-26T20:56:22.548Z,8.40
2019-04-26T20:58:52.417Z,8.30
2019-04-26T21:01:22.803Z,8.40
2019-04-26T21:03:52.411Z,8.30
2019-04-26T21:06:22.340Z,8.40
2019-04-26T21:08:58.736Z,8.40
2019-04-26T21:11:25.481Z,8.60
2019-04-26T21:13:55.177Z,8.60
2019-04-26T21:16:24.592Z,8.60
2019-04-26T21:18:55.307Z,8.60
2019-04-26T21:21:24.710Z,8.50
2019-04-26T21:23:54.656Z,8.50
2019-04-26T21:26:51.373Z,8.60
2019-04-26T21:29:30.385Z,8.70
2019-04-26T21:32:16.453Z,8.70
2019-04-26T21:34:50.512Z,8.60
2019-04-26T21:37:49.458Z,8.60
2019-04-26T21:40:26.270Z,8.60
2019-04-26T21:42:59.524Z,8.70
2019-04-26T21:45:30.757Z,8.80
2019-04-26T21:47:58.201Z,8.70
2019-04-26T21:50:29.166Z,8.70
2019-04-26T21:53:03.482Z,8.70
2019-04-26T21:55:37.278Z,8.70
2019-04-26T21:58:05.182Z,8.70
2019-04-26T22:01:03.069Z,8.70
2019-04-26T22:03:32.792Z,8.80
2019-04-26T22:06:04.039Z,8.80
2019-04-26T22:08:35.616Z,8.80
2019-04-26T22:11:04.996Z,8.80
2019-04-26T22:13:44.703Z,8.80
2019-04-26T22:16:33.518Z,8.80
2019-04-26T22:19:09.501Z,8.70
2019-04-26T22:21:59.439Z,8.70
2019-04-26T22:24:31.625Z,8.60
2019-04-26T22:27:01.272Z,8.50
2019-04-26T22:29:33.234Z,8.50
2019-04-26T22:32:04.006Z,8.50
2019-04-26T22:34:37.348Z,8.50
2019-04-26T22:37:11.519Z,8.50
2019-04-26T22:39:39.793Z,8.40
2019-04-26T22:42:09.257Z,8.50
2019-04-26T22:44:45.916Z,8.40
2019-04-26T22:47:24.063Z,8.40
2019-04-26T22:49:53.500Z,8.60
2019-04-26T22:52:23.226Z,8.70
2019-04-26T22:54:53.850Z,8.60
2019-04-26T22:57:23.649Z,8.70
2019-04-26T22:59:54.381Z,8.80
2019-04-26T23:02:27.698Z,8.70
2019-04-26T23:05:00.157Z,8.70
2019-04-26T23:07:27.164Z,8.70
2019-04-26T23:09:56.734Z,8.70
2019-04-26T23:12:53.838Z,8.80
2019-04-26T23:15:40.190Z,8.80
2019-04-26T23:18:27.784Z,8.80
2019-04-26T23:20:59.600Z,8.90
2019-04-26T23:23:29.790Z,8.90
2019-04-26T23:26:02.340Z,8.90
2019-04-26T23:28:36.857Z,9.00
2019-04-26T23:31:07.770Z,8.90
2019-04-26T23:33:35.508Z,8.80
2019-04-26T23:36:04.889Z,8.80
2019-04-26T23:38:37.627Z,8.70
2019-04-26T23:41:07.899Z,8.70
2019-04-26T23:43:37.647Z,8.70
2019-04-26T23:46:07.311Z,8.60
2019-04-26T23:48:37.672Z,8.60
2019-04-26T23:51:08.503Z,8.60
2019-04-26T23:53:38.160Z,8.60
2019-04-26T23:56:07.673Z,8.60
2019-04-26T23:58:40.199Z,8.50
